createdAt,value
2018-04-28T00:00:12.504Z,15.35
2018-04-28T00:01:12.353Z,15.31
2018-04-28T00:02:12.532Z,15.26
2018-04-28T00:03:12.306Z,15.28
2018-04-28T00:04:12.327Z,15.26
2018-04-28T00:05:12.260Z,15.26
2018-04-28T00:06:12.342Z,15.19
2018-04-28T00:07:12.218Z,15.23
2018-04-28T00:08:12.252Z,15.21
2018-04-28T00:09:12.171Z,15.20
2018-04-28T00:10:12.267Z,15.19
2018-04-28T00:11:12.130Z,15.24
2018-04-28T00:12:12.177Z,15.15
2018-04-28T00:13:12.085Z,15.20
2018-04-28T00:14:12.194Z,15.19
2018-04-28T00:15:12.038Z,15.12
2018-04-28T00:16:12.103Z,15.15
2018-04-28T00:17:11.995Z,15.17
2018-04-28T00:18:12.016Z,15.11
2018-04-28T00:19:11.951Z,15.08
2018-04-28T00:20:12.031Z,15.11
2018-04-28T00:21:11.904Z,15.11
2018-04-28T00:22:11.940Z,15.08
2018-04-28T00:23:11.860Z,14.95
2018-04-28T00:24:11.953Z,15.03
2018-04-28T00:25:11.815Z,14.99
2018-04-28T00:26:11.866Z,15.02
2018-04-28T00:27:11.762Z,14.94
2018-04-28T00:28:11.880Z,14.87
2018-04-28T00:29:11.723Z,14.93
2018-04-28T00:30:11.795Z,14.83
2018-04-28T00:31:11.686Z,14.87
2018-04-28T00:32:11.805Z,14.86
2018-04-28T00:33:11.638Z,14.91
2018-04-28T00:34:11.716Z,14.84
2018-04-28T00:35:11.600Z,14.94
2018-04-28T00:36:11.628Z,14.88
2018-04-28T00:37:11.548Z,14.93
2018-04-28T00:38:11.641Z,14.87
2018-04-28T00:39:11.504Z,14.86
2018-04-28T00:40:11.554Z,14.88
2018-04-28T00:41:11.457Z,14.83
2018-04-28T00:42:11.568Z,14.86
2018-04-28T00:43:11.413Z,14.80
2018-04-28T00:44:11.479Z,14.75
2018-04-28T00:45:11.363Z,14.74
2018-04-28T00:46:11.491Z,14.67
2018-04-28T00:47:11.323Z,14.68
2018-04-28T00:48:11.405Z,14.67
2018-04-28T00:49:11.282Z,14.75
2018-04-28T00:50:11.421Z,14.64
2018-04-28T00:51:11.241Z,14.68
2018-04-28T00:52:11.333Z,14.62
2018-04-28T00:53:11.190Z,14.67
2018-04-28T00:54:11.244Z,14.61
2018-04-28T00:55:11.144Z,14.62
2018-04-28T00:56:11.262Z,14.64
2018-04-28T00:57:11.102Z,14.60
2018-04-28T00:58:11.170Z,14.56
2018-04-28T00:59:11.055Z,14.57
2018-04-28T01:00:11.182Z,14.68
2018-04-28T01:01:11.009Z,14.64
2018-04-28T01:02:11.094Z,14.64
2018-04-28T01:03:10.966Z,14.53
2018-04-28T01:04:11.108Z,14.52
2018-04-28T01:05:10.920Z,14.49
2018-04-28T01:06:11.025Z,14.49
2018-04-28T01:07:10.876Z,14.52
2018-04-28T01:08:11.037Z,14.49
2018-04-28T01:09:10.832Z,14.50
2018-04-28T01:10:10.946Z,14.52
2018-04-28T01:11:10.785Z,14.46
2018-04-28T01:12:10.859Z,14.49
2018-04-28T01:13:10.742Z,14.43
2018-04-28T01:14:10.870Z,14.47
2018-04-28T01:15:10.698Z,14.44
2018-04-28T01:16:10.784Z,14.49
2018-04-28T01:17:10.653Z,14.46
2018-04-28T01:18:10.799Z,14.35
2018-04-28T01:19:10.604Z,14.42
2018-04-28T01:20:10.701Z,14.27
2018-04-28T01:21:10.561Z,14.31
2018-04-28T01:22:10.723Z,14.31
2018-04-28T01:23:10.515Z,14.20
2018-04-28T01:24:10.636Z,14.32
2018-04-28T01:25:10.472Z,14.25
2018-04-28T01:26:10.547Z,14.31
2018-04-28T01:27:10.425Z,14.38
2018-04-28T01:28:10.558Z,14.37
2018-04-28T01:29:10.379Z,14.28
2018-04-28T01:30:10.472Z,14.24
2018-04-28T01:31:10.335Z,14.25
2018-04-28T01:32:10.483Z,14.24
2018-04-28T01:33:10.289Z,14.24
2018-04-28T01:34:10.397Z,14.24
2018-04-28T01:35:10.245Z,14.21
2018-04-28T01:36:10.412Z,14.24
2018-04-28T01:37:10.201Z,14.19
2018-04-28T01:38:10.322Z,14.16
2018-04-28T01:39:10.158Z,14.19
2018-04-28T01:40:10.234Z,14.14
2018-04-28T01:41:10.105Z,14.19
2018-04-28T01:42:10.247Z,14.14
2018-04-28T01:43:10.062Z,14.16
2018-04-28T01:44:10.162Z,14.16
2018-04-28T01:45:10.016Z,14.13
2018-04-28T01:46:10.171Z,14.17
2018-04-28T01:47:09.971Z,14.09
2018-04-28T01:48:10.089Z,14.17
2018-04-28T01:49:09.925Z,14.20
2018-04-28T01:50:10.097Z,14.20
2018-04-28T01:51:09.883Z,14.09
2018-04-28T01:52:10.024Z,14.17
2018-04-28T01:53:09.838Z,14.06
2018-04-28T01:54:10.027Z,14.20
2018-04-28T01:55:09.793Z,14.19
2018-04-28T01:56:09.936Z,14.06
2018-04-28T01:57:24.693Z,14.09
2018-04-28T01:58:09.861Z,14.17
2018-04-28T01:59:09.698Z,14.17
2018-04-28T02:00:09.882Z,14.12
2018-04-28T02:01:09.653Z,14.14
2018-04-28T02:02:09.671Z,14.12
2018-04-28T02:03:09.609Z,14.07
2018-04-28T02:04:09.684Z,14.04
2018-04-28T02:05:09.564Z,14.04
2018-04-28T02:06:09.596Z,14.04
2018-04-28T02:07:09.516Z,13.95
2018-04-28T02:08:09.610Z,13.92
2018-04-28T02:09:09.470Z,13.94
2018-04-28T02:10:09.529Z,13.98
2018-04-28T02:11:09.426Z,13.96
2018-04-28T02:12:09.435Z,13.96
2018-04-28T02:13:09.380Z,13.99
2018-04-28T02:14:09.450Z,13.96
2018-04-28T02:15:09.335Z,13.92
2018-04-28T02:16:09.360Z,13.92
2018-04-28T02:17:09.292Z,13.94
2018-04-28T02:18:09.374Z,13.88
2018-04-28T02:19:09.246Z,13.89
2018-04-28T02:20:09.289Z,13.91
2018-04-28T02:21:09.191Z,13.92
2018-04-28T02:22:09.302Z,13.89
2018-04-28T02:23:09.152Z,13.83
2018-04-28T02:24:09.213Z,13.94
2018-04-28T02:25:09.106Z,13.92
2018-04-28T02:26:09.123Z,13.94
2018-04-28T02:27:09.064Z,13.92
2018-04-28T02:28:09.139Z,13.91
2018-04-28T02:29:09.013Z,13.96
2018-04-28T02:30:09.044Z,13.91
2018-04-28T02:31:08.972Z,13.94
2018-04-28T02:32:09.063Z,13.94
2018-04-28T02:33:08.922Z,13.94
2018-04-28T02:34:10.000Z,13.83
2018-04-28T02:35:08.878Z,13.87
2018-04-28T02:36:08.988Z,13.87
2018-04-28T02:37:08.833Z,13.89
2018-04-28T02:38:09.927Z,13.95
2018-04-28T02:39:08.788Z,13.91
2018-04-28T02:40:08.812Z,13.89
2018-04-28T02:41:08.741Z,13.96
2018-04-28T02:42:08.826Z,13.89
2018-04-28T02:43:08.695Z,13.91
2018-04-28T02:44:08.740Z,13.99
2018-04-28T02:45:08.649Z,13.99
2018-04-28T02:46:08.752Z,13.95
2018-04-28T02:47:08.604Z,14.04
2018-04-28T02:48:08.664Z,13.99
2018-04-28T02:49:08.548Z,13.91
2018-04-28T02:50:08.637Z,13.98
2018-04-28T02:51:08.513Z,13.94
2018-04-28T02:52:08.590Z,13.94
2018-04-28T02:53:08.465Z,13.95
2018-04-28T02:54:08.603Z,13.94
2018-04-28T02:55:08.419Z,13.95
2018-04-28T02:56:08.513Z,13.96
2018-04-28T02:57:08.376Z,13.91
2018-04-28T02:58:08.426Z,13.92
2018-04-28T02:59:08.329Z,13.99
2018-04-28T03:00:08.441Z,13.94
2018-04-28T03:01:08.283Z,14.01
2018-04-28T03:02:08.353Z,13.95
2018-04-28T03:03:08.237Z,13.94
2018-04-28T03:04:08.365Z,13.96
2018-04-28T03:05:08.194Z,13.96
2018-04-28T03:06:08.279Z,13.95
2018-04-28T03:07:08.144Z,13.95
2018-04-28T03:08:08.292Z,13.99
2018-04-28T03:09:08.098Z,14.04
2018-04-28T03:10:08.207Z,13.98
2018-04-28T03:11:08.051Z,14.01
2018-04-28T03:12:08.117Z,13.99
2018-04-28T03:13:08.009Z,14.06
2018-04-28T03:14:08.131Z,14.06
2018-04-28T03:15:07.958Z,14.04
2018-04-28T03:16:08.043Z,14.02
2018-04-28T03:17:07.918Z,13.92
2018-04-28T03:18:08.056Z,13.96
2018-04-28T03:19:07.870Z,13.98
2018-04-28T03:20:07.969Z,13.91
2018-04-28T03:21:07.823Z,13.95
2018-04-28T03:22:07.979Z,13.98
2018-04-28T03:23:07.780Z,13.99
2018-04-28T03:24:07.891Z,13.94
2018-04-28T03:25:07.731Z,13.98
2018-04-28T03:26:07.804Z,13.94
2018-04-28T03:27:07.688Z,13.94
2018-04-28T03:28:07.817Z,13.98
2018-04-28T03:29:07.643Z,14.02
2018-04-28T03:30:07.730Z,13.95
2018-04-28T03:31:07.595Z,13.98
2018-04-28T03:32:07.743Z,13.96
2018-04-28T03:33:07.552Z,13.94
2018-04-28T03:34:07.654Z,13.99
2018-04-28T03:35:07.506Z,13.94
2018-04-28T03:36:07.659Z,13.95
2018-04-28T03:37:07.467Z,13.91
2018-04-28T03:38:07.579Z,13.91
2018-04-28T03:39:07.412Z,13.92
2018-04-28T03:40:07.491Z,13.91
2018-04-28T03:41:07.363Z,13.94
2018-04-28T03:42:07.505Z,13.89
2018-04-28T03:43:07.324Z,13.89
2018-04-28T03:44:07.417Z,13.84
2018-04-28T03:45:07.275Z,13.79
2018-04-28T03:46:07.430Z,13.81
2018-04-28T03:47:07.227Z,13.83
2018-04-28T03:48:07.345Z,13.84
2018-04-28T03:49:07.181Z,13.79
2018-04-28T03:50:07.355Z,13.83
2018-04-28T03:51:07.139Z,13.80
2018-04-28T03:52:07.178Z,13.79
2018-04-28T03:53:07.095Z,13.65
2018-04-28T03:54:07.182Z,13.65
2018-04-28T03:55:07.046Z,13.70
2018-04-28T03:56:07.194Z,13.74
2018-04-28T03:57:06.998Z,13.67
2018-04-28T03:58:07.106Z,13.63
2018-04-28T03:59:06.952Z,13.74
2018-04-28T04:00:07.122Z,13.63
2018-04-28T04:01:06.906Z,13.65
2018-04-28T04:02:07.035Z,13.65
2018-04-28T04:03:06.863Z,13.74
2018-04-28T04:04:07.039Z,13.62
2018-04-28T04:05:06.824Z,13.71
2018-04-28T04:06:06.957Z,13.70
2018-04-28T04:07:06.769Z,13.62
2018-04-28T04:08:06.868Z,13.63
2018-04-28T04:09:06.723Z,13.56
2018-04-28T04:10:06.894Z,13.55
2018-04-28T04:11:06.676Z,13.51
2018-04-28T04:12:06.794Z,13.55
2018-04-28T04:13:06.635Z,13.56
2018-04-28T04:14:06.807Z,13.52
2018-04-28T04:15:06.589Z,13.51
2018-04-28T04:16:06.617Z,13.47
2018-04-28T04:17:06.536Z,13.55
2018-04-28T04:18:06.634Z,13.54
2018-04-28T04:19:06.535Z,13.52
2018-04-28T04:20:06.544Z,13.51
2018-04-28T04:21:06.444Z,13.52
2018-04-28T04:22:06.460Z,13.51
2018-04-28T04:23:06.397Z,13.61
2018-04-28T04:24:06.469Z,13.55
2018-04-28T04:25:06.341Z,13.65
2018-04-28T04:26:06.381Z,13.55
2018-04-28T04:27:06.305Z,13.55
2018-04-28T04:28:06.398Z,13.54
2018-04-28T04:29:06.258Z,13.63
2018-04-28T04:30:06.308Z,13.54
2018-04-28T04:31:06.212Z,13.65
2018-04-28T04:32:06.319Z,13.59
2018-04-28T04:33:06.164Z,13.62
2018-04-28T04:34:06.212Z,13.58
2018-04-28T04:35:06.121Z,13.61
2018-04-28T04:36:06.144Z,13.62
2018-04-28T04:37:06.073Z,13.61
2018-04-28T04:38:06.165Z,13.58
2018-04-28T04:39:06.028Z,13.54
2018-04-28T04:40:06.088Z,13.61
2018-04-28T04:41:05.981Z,13.52
2018-04-28T04:42:06.083Z,13.52
2018-04-28T04:43:05.934Z,13.52
2018-04-28T04:44:05.994Z,13.56
2018-04-28T04:45:05.888Z,13.65
2018-04-28T04:46:06.010Z,13.63
2018-04-28T04:47:05.841Z,13.52
2018-04-28T04:48:05.920Z,13.56
2018-04-28T04:49:05.793Z,13.67
2018-04-28T04:50:05.833Z,13.55
2018-04-28T04:51:05.748Z,13.63
2018-04-28T04:52:05.866Z,13.56
2018-04-28T04:53:05.703Z,13.56
2018-04-28T04:54:05.756Z,13.56
2018-04-28T04:55:05.658Z,13.63
2018-04-28T04:56:05.779Z,13.54
2018-04-28T04:57:05.610Z,13.67
2018-04-28T04:58:05.682Z,13.69
2018-04-28T04:59:05.585Z,13.69
2018-04-28T05:00:05.604Z,13.67
2018-04-28T05:01:05.518Z,13.59
2018-04-28T05:02:05.609Z,13.55
2018-04-28T05:03:05.472Z,13.56
2018-04-28T05:04:05.520Z,13.56
2018-04-28T05:05:05.431Z,13.55
2018-04-28T05:06:05.535Z,13.70
2018-04-28T05:07:05.376Z,13.61
2018-04-28T05:08:05.469Z,13.67
2018-04-28T05:09:05.329Z,13.71
2018-04-28T05:10:05.461Z,13.67
2018-04-28T05:11:05.287Z,13.69
2018-04-28T05:12:05.376Z,13.70
2018-04-28T05:13:05.241Z,13.67
2018-04-28T05:14:05.394Z,13.69
2018-04-28T05:15:05.190Z,13.63
2018-04-28T05:16:05.296Z,13.71
2018-04-28T05:17:05.145Z,13.67
2018-04-28T05:18:05.210Z,13.67
2018-04-28T05:19:05.120Z,13.76
2018-04-28T05:20:05.223Z,13.63
2018-04-28T05:21:05.052Z,13.73
2018-04-28T05:22:05.134Z,13.65
2018-04-28T05:23:05.004Z,13.77
2018-04-28T05:24:05.150Z,13.63
2018-04-28T05:25:04.961Z,13.69
2018-04-28T05:26:05.063Z,13.69
2018-04-28T05:27:04.913Z,13.69
2018-04-28T05:28:04.971Z,13.77
2018-04-28T05:29:04.874Z,13.71
2018-04-28T05:30:04.986Z,13.76
2018-04-28T05:31:04.823Z,13.74
2018-04-28T05:32:04.897Z,13.76
2018-04-28T05:33:04.772Z,13.67
2018-04-28T05:34:04.909Z,13.77
2018-04-28T05:35:04.727Z,13.76
2018-04-28T05:36:04.843Z,13.63
2018-04-28T05:37:04.679Z,13.83
2018-04-28T05:38:04.839Z,13.77
2018-04-28T05:39:04.638Z,13.80
2018-04-28T05:40:04.748Z,13.74
2018-04-28T05:41:04.587Z,13.79
2018-04-28T05:42:04.660Z,13.81
2018-04-28T05:43:04.540Z,13.88
2018-04-28T05:44:04.674Z,13.94
2018-04-28T05:45:04.498Z,13.91
2018-04-28T05:46:04.585Z,13.92
2018-04-28T05:47:04.447Z,13.95
2018-04-28T05:48:04.537Z,13.95
2018-04-28T05:49:04.400Z,13.95
2018-04-28T05:50:04.526Z,13.92
2018-04-28T05:51:04.356Z,14.01
2018-04-28T05:52:04.526Z,13.94
2018-04-28T05:53:04.308Z,13.99
2018-04-28T05:54:04.454Z,13.94
2018-04-28T05:55:04.267Z,14.01
2018-04-28T05:56:04.350Z,13.95
2018-04-28T05:57:04.219Z,14.02
2018-04-28T05:58:04.365Z,13.98
2018-04-28T05:59:04.169Z,14.07
2018-04-28T06:00:04.276Z,14.02
2018-04-28T06:01:04.123Z,14.04
2018-04-28T06:02:04.292Z,14.02
2018-04-28T06:03:04.076Z,14.10
2018-04-28T06:04:04.201Z,14.06
2018-04-28T06:05:04.030Z,14.13
2018-04-28T06:06:04.114Z,14.09
2018-04-28T06:07:03.985Z,14.12
2018-04-28T06:08:04.127Z,14.06
2018-04-28T06:09:03.937Z,14.06
2018-04-28T06:10:04.038Z,14.09
2018-04-28T06:11:03.893Z,14.12
2018-04-28T06:12:04.058Z,14.04
2018-04-28T06:13:03.846Z,14.12
2018-04-28T06:14:04.019Z,14.10
2018-04-28T06:15:03.799Z,14.14
2018-04-28T06:16:03.978Z,14.14
2018-04-28T06:17:03.754Z,14.21
2018-04-28T06:18:03.892Z,14.12
2018-04-28T06:19:03.706Z,14.13
2018-04-28T06:20:03.924Z,14.19
2018-04-28T06:21:03.664Z,14.19
2018-04-28T06:22:03.813Z,14.16
2018-04-28T06:23:03.619Z,14.14
2018-04-28T06:24:03.728Z,14.20
2018-04-28T06:25:03.565Z,14.28
2018-04-28T06:26:03.813Z,14.28
2018-04-28T06:27:03.519Z,14.21
2018-04-28T06:28:03.655Z,14.17
2018-04-28T06:29:03.481Z,14.14
2018-04-28T06:30:03.568Z,14.24
2018-04-28T06:31:03.432Z,14.28
2018-04-28T06:32:03.478Z,14.20
2018-04-28T06:33:03.386Z,14.28
2018-04-28T06:34:03.389Z,14.32
2018-04-28T06:35:03.342Z,14.32
2018-04-28T06:36:03.402Z,14.28
2018-04-28T06:37:03.291Z,14.34
2018-04-28T06:38:03.316Z,14.29
2018-04-28T06:39:03.246Z,14.27
2018-04-28T06:40:03.329Z,14.29
2018-04-28T06:41:03.204Z,14.24
2018-04-28T06:42:03.237Z,14.25
2018-04-28T06:43:03.162Z,14.34
2018-04-28T06:44:03.254Z,14.31
2018-04-28T06:45:03.110Z,14.32
2018-04-28T06:46:03.172Z,14.29
2018-04-28T06:47:03.064Z,14.32
2018-04-28T06:48:03.076Z,14.25
2018-04-28T06:49:03.035Z,14.37
2018-04-28T06:50:03.086Z,14.32
2018-04-28T06:51:03.069Z,14.37
2018-04-28T06:52:03.002Z,14.37
2018-04-28T06:53:02.931Z,14.38
2018-04-28T06:54:03.016Z,14.39
2018-04-28T06:55:02.881Z,14.38
2018-04-28T06:56:02.902Z,14.35
2018-04-28T06:57:02.837Z,14.49
2018-04-28T06:58:02.916Z,14.46
2018-04-28T06:59:02.789Z,14.47
2018-04-28T07:00:02.856Z,14.50
2018-04-28T07:01:02.743Z,14.50
2018-04-28T07:02:02.766Z,14.50
2018-04-28T07:03:02.698Z,14.47
2018-04-28T07:04:02.677Z,14.46
2018-04-28T07:05:02.683Z,14.46
2018-04-28T07:06:02.627Z,14.46
2018-04-28T07:07:02.696Z,14.46
2018-04-28T07:08:02.583Z,14.53
2018-04-28T07:09:02.607Z,14.54
2018-04-28T07:10:02.538Z,14.37
2018-04-28T07:11:02.631Z,14.43
2018-04-28T07:12:02.491Z,14.46
2018-04-28T07:13:02.533Z,14.50
2018-04-28T07:14:02.453Z,14.44
2018-04-28T07:15:02.424Z,14.53
2018-04-28T07:16:02.413Z,14.54
2018-04-28T07:17:02.459Z,14.52
2018-04-28T07:18:02.359Z,14.60
2018-04-28T07:19:02.374Z,14.60
2018-04-28T07:20:02.378Z,14.64
2018-04-28T07:21:02.327Z,14.72
2018-04-28T07:22:02.299Z,14.83
2018-04-28T07:23:02.245Z,14.84
2018-04-28T07:24:02.309Z,14.93
2018-04-28T07:25:02.197Z,14.87
2018-04-28T07:26:02.222Z,14.88
2018-04-28T07:27:02.281Z,14.83
2018-04-28T07:28:02.249Z,14.81
2018-04-28T07:29:02.107Z,14.88
2018-04-28T07:30:02.150Z,14.86
2018-04-28T07:31:02.060Z,14.80
2018-04-28T07:32:02.060Z,14.90
2018-04-28T07:33:02.018Z,14.88
2018-04-28T07:34:02.085Z,14.90
2018-04-28T07:35:01.971Z,14.83
2018-04-28T07:36:01.979Z,14.95
2018-04-28T07:37:01.929Z,14.93
2018-04-28T07:38:01.998Z,15.06
2018-04-28T07:39:01.881Z,15.06
2018-04-28T07:40:01.906Z,15.08
2018-04-28T07:41:01.839Z,15.03
2018-04-28T07:42:01.920Z,15.05
2018-04-28T07:43:01.796Z,15.11
2018-04-28T07:44:01.837Z,15.11
2018-04-28T07:45:01.744Z,15.11
2018-04-28T07:46:01.741Z,15.19
2018-04-28T07:47:01.705Z,15.24
2018-04-28T07:48:01.758Z,15.27
2018-04-28T07:49:01.656Z,15.27
2018-04-28T07:50:01.668Z,15.26
2018-04-28T07:51:01.616Z,15.36
2018-04-28T07:52:01.686Z,15.24
2018-04-28T07:53:01.566Z,15.33
2018-04-28T07:54:01.609Z,15.28
2018-04-28T07:55:01.564Z,15.31
2018-04-28T07:56:01.609Z,15.39
2018-04-28T07:57:01.476Z,15.36
2018-04-28T07:58:01.521Z,15.42
2018-04-28T07:59:01.436Z,15.30
2018-04-28T08:00:01.436Z,15.36
2018-04-28T08:01:01.388Z,15.33
2018-04-28T08:02:01.445Z,15.33
2018-04-28T08:03:01.346Z,15.30
2018-04-28T08:04:01.325Z,15.28
2018-04-28T08:05:01.297Z,15.33
2018-04-28T08:06:01.372Z,15.38
2018-04-28T08:07:01.286Z,15.42
2018-04-28T08:08:01.283Z,15.43
2018-04-28T08:09:01.210Z,15.42
2018-04-28T08:10:01.298Z,15.52
2018-04-28T08:11:01.174Z,15.52
2018-04-28T08:12:01.208Z,15.51
2018-04-28T08:13:01.124Z,15.41
2018-04-28T08:14:01.125Z,15.52
2018-04-28T08:15:01.078Z,15.63
2018-04-28T08:16:01.136Z,15.68
2018-04-28T08:17:01.034Z,15.79
2018-04-28T08:18:01.045Z,15.76
2018-04-28T08:19:00.992Z,15.92
2018-04-28T08:20:01.060Z,16.00
2018-04-28T08:21:00.949Z,15.86
2018-04-28T08:22:00.974Z,15.89
2018-04-28T08:23:00.912Z,15.88
2018-04-28T08:24:00.985Z,15.96
2018-04-28T08:25:00.857Z,15.97
2018-04-28T08:26:00.898Z,16.04
2018-04-28T08:27:00.816Z,16.14
2018-04-28T08:28:00.809Z,16.14
2018-04-28T08:29:00.768Z,16.11
2018-04-28T08:30:00.826Z,16.14
2018-04-28T08:31:00.725Z,16.20
2018-04-28T08:32:00.737Z,16.27
2018-04-28T08:33:00.682Z,16.27
2018-04-28T08:34:00.750Z,16.37
2018-04-28T08:35:00.637Z,16.38
2018-04-28T08:36:00.664Z,16.40
2018-04-28T08:37:00.651Z,16.41
2018-04-28T08:38:00.676Z,16.50
2018-04-28T08:39:00.550Z,16.55
2018-04-28T08:40:00.609Z,16.30
2018-04-28T08:41:00.510Z,16.12
2018-04-28T08:42:00.496Z,16.07
2018-04-28T08:43:00.465Z,16.27
2018-04-28T08:44:00.516Z,16.26
2018-04-28T08:45:00.422Z,16.45
2018-04-28T08:46:00.426Z,16.55
2018-04-28T08:47:00.379Z,16.67
2018-04-28T08:48:00.439Z,16.73
2018-04-28T08:49:00.335Z,16.90
2018-04-28T08:50:00.352Z,16.90
2018-04-28T08:51:00.364Z,16.89
2018-04-28T08:52:00.368Z,16.88
2018-04-28T08:53:00.319Z,16.89
2018-04-28T08:54:00.275Z,16.88
2018-04-28T08:55:00.206Z,16.85
2018-04-28T08:56:01.213Z,16.83
2018-04-28T08:57:00.169Z,17.00
2018-04-28T08:58:00.202Z,17.10
2018-04-28T08:59:00.124Z,17.08
2018-04-28T09:00:00.215Z,16.96
2018-04-28T09:01:00.083Z,17.11
2018-04-28T09:02:00.130Z,17.08
2018-04-28T09:03:00.040Z,17.07
2018-04-28T09:04:00.038Z,17.30
2018-04-28T09:04:59.993Z,17.36
2018-04-28T09:06:00.051Z,17.33
2018-04-28T09:06:59.955Z,17.25
2018-04-28T09:07:59.962Z,17.29
2018-04-28T09:08:59.911Z,17.22
2018-04-28T09:09:59.977Z,17.10
2018-04-28T09:10:59.872Z,17.11
2018-04-28T09:11:59.885Z,17.18
2018-04-28T09:12:59.834Z,17.06
2018-04-28T09:13:59.907Z,17.07
2018-04-28T09:14:59.787Z,17.03
2018-04-28T09:15:59.818Z,16.99
2018-04-28T09:16:59.745Z,17.17
2018-04-28T09:18:00.755Z,17.13
2018-04-28T09:18:59.703Z,17.00
2018-04-28T09:19:59.744Z,17.18
2018-04-28T09:20:59.661Z,17.11
2018-04-28T09:21:59.756Z,17.07
2018-04-28T09:22:59.623Z,17.04
2018-04-28T09:23:59.667Z,16.95
2018-04-28T09:24:59.580Z,16.88
2018-04-28T09:25:59.616Z,16.86
2018-04-28T09:26:59.539Z,16.73
2018-04-28T09:27:59.591Z,16.78
2018-04-28T09:28:59.497Z,16.90
2018-04-28T09:29:59.502Z,16.75
2018-04-28T09:30:59.453Z,16.68
2018-04-28T09:31:59.518Z,16.62
2018-04-28T09:32:59.505Z,16.63
2018-04-28T09:33:59.429Z,16.74
2018-04-28T09:34:59.374Z,16.83
2018-04-28T09:35:59.442Z,16.90
2018-04-28T09:36:59.331Z,17.00
2018-04-28T09:37:59.353Z,16.90
2018-04-28T09:38:59.286Z,16.96
2018-04-28T09:39:59.411Z,17.06
2018-04-28T09:40:59.244Z,17.08
2018-04-28T09:41:59.291Z,16.92
2018-04-28T09:42:59.201Z,16.89
2018-04-28T09:43:59.191Z,17.08
2018-04-28T09:44:59.163Z,17.06
2018-04-28T09:45:59.208Z,17.18
2018-04-28T09:46:59.119Z,17.14
2018-04-28T09:47:59.123Z,17.20
2018-04-28T09:48:59.109Z,17.29
2018-04-28T09:49:59.132Z,17.48
2018-04-28T09:50:59.039Z,17.51
2018-04-28T09:51:59.014Z,17.54
2018-04-28T09:52:59.152Z,17.55
2018-04-28T09:53:58.972Z,17.66
2018-04-28T09:54:59.071Z,17.47
2018-04-28T09:55:58.931Z,17.43
2018-04-28T09:56:58.907Z,17.26
2018-04-28T09:57:58.889Z,17.14
2018-04-28T09:58:58.934Z,17.10
2018-04-28T09:59:58.849Z,17.25
2018-04-28T10:00:58.901Z,17.33
2018-04-28T10:01:58.805Z,17.28
2018-04-28T10:02:58.813Z,17.33
2018-04-28T10:03:58.764Z,17.43
2018-04-28T10:04:58.826Z,17.40
2018-04-28T10:05:58.769Z,17.32
2018-04-28T10:06:58.740Z,17.40
2018-04-28T10:07:58.680Z,17.43
2018-04-28T10:08:58.752Z,17.40
2018-04-28T10:09:58.650Z,17.43
2018-04-28T10:10:58.665Z,17.41
2018-04-28T10:11:58.599Z,17.40
2018-04-28T10:12:58.679Z,17.48
2018-04-28T10:13:58.558Z,17.66
2018-04-28T10:14:58.590Z,17.59
2018-04-28T10:15:58.520Z,17.63
2018-04-28T10:16:58.604Z,17.67
2018-04-28T10:17:58.481Z,17.73
2018-04-28T10:18:58.516Z,17.74
2018-04-28T10:19:58.434Z,17.81
2018-04-28T10:20:58.531Z,17.76
2018-04-28T10:21:58.398Z,17.84
2018-04-28T10:22:58.440Z,17.85
2018-04-28T10:23:58.353Z,17.94
2018-04-28T10:24:58.353Z,17.84
2018-04-28T10:25:58.313Z,17.89
2018-04-28T10:26:58.368Z,17.85
2018-04-28T10:27:58.272Z,17.82
2018-04-28T10:28:58.277Z,17.85
2018-04-28T10:29:58.231Z,17.64
2018-04-28T10:30:58.341Z,17.66
2018-04-28T10:31:58.194Z,17.47
2018-04-28T10:32:58.205Z,17.40
2018-04-28T10:33:58.152Z,17.33
2018-04-28T10:34:58.221Z,17.41
2018-04-28T10:35:58.109Z,17.50
2018-04-28T10:36:58.130Z,17.35
2018-04-28T10:37:58.069Z,17.43
2018-04-28T10:38:58.145Z,17.53
2018-04-28T10:39:58.030Z,17.51
2018-04-28T10:40:58.055Z,17.57
2018-04-28T10:41:57.988Z,17.59
2018-04-28T10:42:58.070Z,17.62
2018-04-28T10:43:57.938Z,17.67
2018-04-28T10:44:57.982Z,17.70
2018-04-28T10:45:57.906Z,17.70
2018-04-28T10:46:57.996Z,17.64
2018-04-28T10:47:57.862Z,17.69
2018-04-28T10:48:57.909Z,17.82
2018-04-28T10:49:57.827Z,17.82
2018-04-28T10:50:57.818Z,17.87
2018-04-28T10:51:57.783Z,17.85
2018-04-28T10:52:57.838Z,18.10
2018-04-28T10:53:57.830Z,18.17
2018-04-28T10:54:57.745Z,18.42
2018-04-28T10:55:57.701Z,18.80
2018-04-28T10:56:57.759Z,19.05
2018-04-28T10:57:57.662Z,19.24
2018-04-28T10:58:57.670Z,19.21
2018-04-28T10:59:57.620Z,19.28
2018-04-28T11:00:57.689Z,19.31
2018-04-28T11:01:57.579Z,19.05
2018-04-28T11:02:57.605Z,19.05
2018-04-28T11:04:04.780Z,18.90
2018-04-28T11:05:50.561Z,18.97
2018-04-28T11:06:50.475Z,18.99
2018-04-28T11:08:44.947Z,19.29
2018-04-28T11:09:45.953Z,19.08
2018-04-28T11:11:37.813Z,19.08
2018-04-28T11:12:37.712Z,19.13
2018-04-28T11:14:30.648Z,19.08
2018-04-28T11:15:30.572Z,19.05
2018-04-28T11:17:23.508Z,19.31
2018-04-28T11:18:23.416Z,19.43
2018-04-28T11:20:16.354Z,19.63
2018-04-28T11:21:16.268Z,19.61
2018-04-28T11:23:09.201Z,19.91
2018-04-28T11:24:09.112Z,20.24
2018-04-28T11:26:02.051Z,20.64
2018-04-28T11:27:01.970Z,20.96
2018-04-28T11:28:54.903Z,21.56
2018-04-28T11:29:54.821Z,21.54
2018-04-28T11:31:47.756Z,21.56
2018-04-28T11:32:47.710Z,21.17
2018-04-28T11:34:40.603Z,20.46
2018-04-28T11:35:40.524Z,20.30
2018-04-28T11:37:33.550Z,20.18
2018-04-28T11:38:33.433Z,19.76
2018-04-28T11:40:26.505Z,19.40
2018-04-28T11:41:26.312Z,19.28
2018-04-28T11:43:19.465Z,19.05
2018-04-28T11:44:19.267Z,19.14
2018-04-28T11:46:12.311Z,19.38
2018-04-28T11:47:12.225Z,19.48
2018-04-28T11:49:05.166Z,19.55
2018-04-28T11:50:05.147Z,19.93
2018-04-28T11:51:58.123Z,20.50
2018-04-28T11:52:57.935Z,20.65
2018-04-28T11:54:50.872Z,20.46
2018-04-28T11:55:50.849Z,20.59
2018-04-28T11:57:44.031Z,20.12
2018-04-28T11:58:43.943Z,20.09
2018-04-28T12:00:36.885Z,20.02
2018-04-28T12:01:36.800Z,19.98
2018-04-28T12:03:29.750Z,19.55
2018-04-28T12:04:29.658Z,19.47
2018-04-28T12:06:22.597Z,19.83
2018-04-28T12:07:22.506Z,20.10
2018-04-28T12:09:15.457Z,20.56
2018-04-28T12:10:15.362Z,20.15
2018-04-28T12:12:08.297Z,19.83
2018-04-28T12:13:08.215Z,19.65
2018-04-28T12:15:01.150Z,19.61
2018-04-28T12:16:01.077Z,19.43
2018-04-28T12:17:54.007Z,19.39
2018-04-28T12:18:53.916Z,19.28
2018-04-28T12:20:46.857Z,19.38
2018-04-28T12:21:46.769Z,19.29
2018-04-28T12:23:39.712Z,19.02
2018-04-28T12:24:39.621Z,18.77
2018-04-28T12:26:32.573Z,18.52
2018-04-28T12:27:32.474Z,18.46
2018-04-28T12:29:25.421Z,18.59
2018-04-28T12:30:25.341Z,18.59
2018-04-28T12:32:18.273Z,18.76
2018-04-28T12:33:18.178Z,19.02
2018-04-28T12:35:11.124Z,19.17
2018-04-28T12:36:11.045Z,19.32
2018-04-28T12:38:03.974Z,19.25
2018-04-28T12:39:03.886Z,19.24
2018-04-28T12:40:56.828Z,19.40
2018-04-28T12:41:56.753Z,19.51
2018-04-28T12:43:49.681Z,19.58
2018-04-28T12:44:49.598Z,19.68
2018-04-28T12:46:42.533Z,19.78
2018-04-28T12:47:42.487Z,19.75
2018-04-28T12:49:35.389Z,19.57
2018-04-28T12:50:35.385Z,19.38
2018-04-28T12:52:28.245Z,19.48
2018-04-28T12:53:28.156Z,19.55
2018-04-28T12:55:21.093Z,19.66
2018-04-28T12:56:21.009Z,19.68
2018-04-28T12:58:13.954Z,19.36
2018-04-28T12:59:13.888Z,19.39
2018-04-28T13:01:06.905Z,19.57
2018-04-28T13:02:06.816Z,19.61
2018-04-28T13:03:59.756Z,19.57
2018-04-28T13:04:59.670Z,19.65
2018-04-28T13:06:52.607Z,19.68
2018-04-28T13:07:52.523Z,19.79
2018-04-28T13:09:45.459Z,19.65
2018-04-28T13:10:45.372Z,19.32
2018-04-28T13:12:38.314Z,19.39
2018-04-28T13:13:38.227Z,19.50
2018-04-28T13:15:31.212Z,19.70
2018-04-28T13:16:31.180Z,19.72
2018-04-28T13:18:24.122Z,19.65
2018-04-28T13:19:24.034Z,19.86
2018-04-28T13:21:16.976Z,20.16
2018-04-28T13:22:16.887Z,20.20
2018-04-28T13:24:10.031Z,20.08
2018-04-28T13:25:09.840Z,20.09
2018-04-28T13:27:03.048Z,19.73
2018-04-28T13:28:02.797Z,19.63
2018-04-28T13:29:55.947Z,19.55
2018-04-28T13:30:55.756Z,19.53
2018-04-28T13:32:48.801Z,19.76
2018-04-28T13:33:48.713Z,19.93
2018-04-28T13:35:41.662Z,20.13
2018-04-28T13:36:41.563Z,20.43
2018-04-28T13:38:34.502Z,20.47
2018-04-28T13:39:34.415Z,20.13